Time;durP1;ratioP1;P1;durP2;ratioP2;P2;SDS_P1;SDS_P2;PMS_P1;PMS_P2;Temp;Humidity;BMP_temperature;BMP_pressure;BME280_temperature;BME280_humidity;BME280_pressure;Samples;Min_cycle;Max_cycle;Signal;HPM_P1;HPM_P2
2024/02/24 00:00:19;;;;;;;6.68;2.60;;;;;;;10.40;55.35;99618.22;5030989;27;98955;-74
2024/02/24 00:02:45;;;;;;;7.00;2.75;;;;;;;10.61;55.03;99611.81;5031982;27;100693;-76
2024/02/24 00:05:13;;;;;;;7.13;2.55;;;;;;;10.52;55.82;99614.09;5027885;27;97533;-75
2024/02/24 00:07:39;;;;;;;6.10;2.10;;;;;;;10.55;55.47;99608.66;5032096;27;98314;-75
2024/02/24 00:10:07;;;;;;;6.15;3.00;;;;;;;10.60;54.87;99615.41;5029967;27;99456;-74
2024/02/24 00:12:33;;;;;;;6.72;2.70;;;;;;;10.65;54.65;99607.22;5027991;27;98882;-74
2024/02/24 00:15:00;;;;;;;8.23;2.50;;;;;;;10.72;53.99;99598.88;5031768;27;96963;-76
2024/02/24 00:17:26;;;;;;;6.97;2.83;;;;;;;10.70;54.22;99606.03;5027738;27;98296;-76
2024/02/24 00:19:52;;;;;;;5.80;2.30;;;;;;;10.52;54.24;99604.38;5028128;27;101268;-75
2024/02/24 00:22:25;;;;;;;9.13;3.38;;;;;;;10.58;55.00;99604.03;5021456;27;99681;-76
2024/02/24 00:24:51;;;;;;;4.40;2.25;;;;;;;10.43;54.73;99604.03;5032425;27;97115;-72
2024/02/24 00:27:18;;;;;;;6.03;2.55;;;;;;;10.23;55.30;99618.28;5031461;27;97301;-70
2024/02/24 00:29:44;;;;;;;6.75;2.70;;;;;;;10.29;55.49;99612.66;5027733;27;98527;-70
2024/02/24 00:32:11;;;;;;;8.65;3.20;;;;;;;10.32;55.11;99607.22;5026862;27;97975;-69
2024/02/24 00:34:37;;;;;;;11.20;3.10;;;;;;;10.46;54.93;99610.00;5028836;27;97204;-69
2024/02/24 00:37:04;;;;;;;8.50;3.08;;;;;;;10.29;55.31;99617.94;5028333;27;96928;-70
2024/02/24 00:39:32;;;;;;;5.25;2.80;;;;;;;10.22;55.70;99616.56;5028264;27;98633;-68
2024/02/24 00:41:58;;;;;;;4.53;2.40;;;;;;;10.28;55.07;99614.47;5027784;27;98808;-68
2024/02/24 00:44:25;;;;;;;8.15;2.75;;;;;;;10.27;55.28;99619.81;5030565;27;96893;-68
2024/02/24 00:46:51;;;;;;;6.90;2.50;;;;;;;10.36;54.81;99620.19;5026272;27;96988;-68
2024/02/24 00:49:19;;;;;;;7.43;2.67;;;;;;;10.41;55.07;99622.59;5031213;27;99050;-67
2024/02/24 00:51:45;;;;;;;5.40;2.40;;;;;;;10.44;55.25;99627.69;5030089;27;98948;-68
2024/02/24 00:54:11;;;;;;;6.63;2.85;;;;;;;10.49;55.13;99625.69;5022463;27;96918;-69
2024/02/24 00:56:39;;;;;;;6.60;2.60;;;;;;;10.07;56.06;99622.59;5026789;27;97756;-68
2024/02/24 00:59:05;;;;;;;8.48;2.75;;;;;;;10.31;55.73;99616.06;5030804;27;98690;-69
2024/02/24 01:01:32;;;;;;;7.43;2.97;;;;;;;10.10;55.74;99619.81;5028555;27;97702;-68
2024/02/24 01:03:58;;;;;;;8.07;3.03;;;;;;;10.12;55.86;99615.28;5031417;27;96872;-69
2024/02/24 01:06:25;;;;;;;9.07;3.00;;;;;;;10.21;55.43;99617.50;5025201;27;98123;-71
2024/02/24 01:08:51;;;;;;;6.82;3.20;;;;;;;10.06;56.46;99610.31;5027475;27;98884;-68
2024/02/24 01:11:17;;;;;;;8.18;2.85;;;;;;;10.14;56.17;99608.16;5026113;27;98874;-68
2024/02/24 01:13:45;;;;;;;5.28;2.80;;;;;;;10.13;56.07;99604.66;5025184;27;96785;-69
2024/02/24 01:16:12;;;;;;;9.38;3.00;;;;;;;9.98;57.12;99614.19;5029072;27;98786;-69
2024/02/24 01:18:38;;;;;;;9.85;2.63;;;;;;;9.87;57.36;99616.53;5029565;27;100210;-68
2024/02/24 01:21:05;;;;;;;8.90;3.17;;;;;;;9.91;57.91;99607.53;5025175;27;102056;-69
2024/02/24 01:23:32;;;;;;;6.38;2.55;;;;;;;9.76;58.75;99612.72;5030302;27;96968;-69
2024/02/24 01:25:59;;;;;;;8.90;3.03;;;;;;;9.93;58.19;99604.81;5031134;27;96931;-68
2024/02/24 01:28:25;;;;;;;8.50;2.50;;;;;;;9.95;57.18;99613.50;5030413;27;97770;-69
2024/02/24 01:30:53;;;;;;;4.70;2.58;;;;;;;9.94;56.73;99607.38;5029991;27;102909;-68
2024/02/24 01:33:19;;;;;;;5.35;2.53;;;;;;;9.90;56.60;99616.41;5031306;27;97275;-69
2024/02/24 01:35:46;;;;;;;7.15;2.63;;;;;;;10.15;56.37;99609.84;5029791;27;97372;-70
2024/02/24 01:38:12;;;;;;;7.30;3.10;;;;;;;10.06;56.18;99610.31;5027995;27;97564;-68
2024/02/24 01:40:39;;;;;;;10.00;3.15;;;;;;;10.11;56.23;99605.69;5022063;27;101053;-69
2024/02/24 01:43:24;;;;;;;5.97;2.80;;;;;;;10.16;56.21;99616.84;5027252;27;96740;-69
2024/02/24 01:45:55;;;;;;;7.03;3.08;;;;;;;10.07;56.34;99609.38;5023592;27;98233;-68
2024/02/24 01:48:21;;;;;;;6.80;2.75;;;;;;;9.93;56.67;99604.81;5020759;27;102214;-68
2024/02/24 01:50:50;;;;;;;8.23;2.75;;;;;;;10.08;56.37;99608.47;5021262;27;101299;-68
2024/02/24 01:53:17;;;;;;;8.68;3.17;;;;;;;9.93;57.14;99608.31;5024200;27;96804;-69
2024/02/24 01:55:45;;;;;;;5.78;2.90;;;;;;;9.93;57.50;99605.66;5020762;27;96798;-69
2024/02/24 01:58:13;;;;;;;8.93;2.67;;;;;;;9.89;57.76;99598.84;5020503;27;97824;-68
2024/02/24 02:00:40;;;;;;;6.88;2.60;;;;;;;9.99;56.67;99596.59;5027109;27;98734;-68
2024/02/24 02:03:08;;;;;;;9.35;2.85;;;;;;;10.04;56.24;99602.50;5028884;27;96912;-68
2024/02/24 02:05:35;;;;;;;6.57;2.85;;;;;;;10.00;56.33;99600.94;5027108;27;96776;-68
2024/02/24 02:08:01;;;;;;;8.45;2.90;;;;;;;10.02;56.40;99598.22;5024721;27;99250;-68
2024/02/24 02:10:43;;;;;;;7.85;2.88;;;;;;;10.02;56.66;99595.59;5025669;27;99062;-69
2024/02/24 02:13:09;;;;;;;5.88;2.75;;;;;;;9.85;56.53;99599.06;5017165;27;96843;-68
2024/02/24 02:15:36;;;;;;;7.38;2.60;;;;;;;10.22;55.81;99600.72;5025566;27;97327;-68
2024/02/24 02:18:03;;;;;;;6.35;2.83;;;;;;;10.13;55.79;99601.16;5022029;27;101701;-68
2024/02/24 02:20:30;;;;;;;6.63;2.88;;;;;;;10.12;55.95;99615.28;5027604;27;100305;-68
2024/02/24 02:22:58;;;;;;;4.93;2.55;;;;;;;10.22;55.78;99601.56;5028308;27;97653;-69
2024/02/24 02:25:24;;;;;;;9.13;2.70;;;;;;;10.24;55.06;99601.50;5026850;27;96893;-68
2024/02/24 02:27:51;;;;;;;7.43;3.08;;;;;;;10.22;55.34;99600.72;5022025;27;99227;-68
2024/02/24 02:30:17;;;;;;;6.22;2.75;;;;;;;10.13;55.72;99596.72;5027304;27;98889;-69
2024/02/24 02:32:43;;;;;;;9.30;2.97;;;;;;;10.17;55.42;99598.34;5027681;27;97255;-68
2024/02/24 02:35:11;;;;;;;5.68;2.70;;;;;;;9.98;56.25;99593.09;5025033;27;96981;-69
2024/02/24 02:37:37;;;;;;;6.38;2.75;;;;;;;10.25;55.51;99585.56;5019789;27;98946;-68
2024/02/24 02:40:06;;;;;;;6.68;2.67;;;;;;;10.25;55.39;99590.84;5028419;27;99033;-68
2024/02/24 02:42:32;;;;;;;7.80;2.80;;;;;;;10.08;56.03;99595.25;5027460;27;97473;-70
2024/02/24 02:44:59;;;;;;;8.05;2.97;;;;;;;10.08;56.25;99587.34;5024112;27;97220;-69
2024/02/24 02:47:25;;;;;;;6.05;3.10;;;;;;;10.16;56.43;99590.44;5023861;27;99371;-67
2024/02/24 02:49:51;;;;;;;7.10;2.95;;;;;;;9.92;57.28;99590.75;5028193;27;98836;-68
2024/02/24 02:52:18;;;;;;;4.68;2.60;;;;;;;10.08;56.61;99598.75;5028542;27;97315;-68
2024/02/24 02:54:44;;;;;;;7.28;2.67;;;;;;;9.88;57.52;99597.13;5028753;27;96976;-68
2024/02/24 02:57:12;;;;;;;4.80;2.83;;;;;;;10.02;57.04;99599.06;5028326;27;99020;-69
2024/02/24 02:59:38;;;;;;;9.85;3.03;;;;;;;10.08;56.55;99604.03;5027466;27;99337;-68
2024/02/24 03:02:04;;;;;;;5.53;2.50;;;;;;;10.06;56.57;99597.13;5029674;27;97754;-68
2024/02/24 03:04:31;;;;;;;5.78;2.47;;;;;;;9.94;57.09;99599.47;5025995;27;97909;-68
2024/02/24 03:06:57;;;;;;;5.20;2.60;;;;;;;10.02;56.22;99607.00;5031472;27;99067;-68
2024/02/24 03:09:23;;;;;;;4.97;2.55;;;;;;;9.96;56.52;99600.25;5028472;27;98929;-68
2024/02/24 03:11:49;;;;;;;6.03;2.90;;;;;;;9.91;56.54;99606.69;5028142;27;96833;-68
2024/02/24 03:14:17;;;;;;;9.35;2.78;;;;;;;9.98;56.78;99606.28;5025932;27;97481;-69
2024/02/24 03:16:43;;;;;;;8.80;3.60;;;;;;;9.63;57.87;99607.22;5019879;27;99210;-68
2024/02/24 03:19:10;;;;;;;7.53;3.00;;;;;;;9.88;57.20;99610.34;5023979;27;99059;-68
2024/02/24 03:21:36;;;;;;;6.28;2.70;;;;;;;9.78;57.25;99613.53;5025632;27;97187;-68
2024/02/24 03:24:05;;;;;;;7.15;2.20;;;;;;;9.80;57.61;99609.84;5022273;27;99957;-68
2024/02/24 03:26:32;;;;;;;6.97;2.83;;;;;;;9.77;57.67;99615.31;5025874;27;100588;-69
2024/02/24 03:28:58;;;;;;;6.38;2.90;;;;;;;9.79;57.27;99604.66;5027931;27;98147;-68
2024/02/24 03:31:26;;;;;;;6.55;3.10;;;;;;;9.82;57.32;99602.72;5028453;27;96753;-69
2024/02/24 03:33:53;;;;;;;5.97;2.75;;;;;;;9.76;57.67;99603.03;5026475;27;97231;-69
2024/02/24 03:36:20;;;;;;;7.50;3.20;;;;;;;9.65;57.83;99599.25;5027380;27;98817;-69
2024/02/24 03:38:47;;;;;;;7.70;2.78;;;;;;;9.66;57.72;99596.50;5027918;27;102249;-69
2024/02/24 03:41:13;;;;;;;7.05;2.80;;;;;;;9.61;58.23;99606.44;5026094;28;97894;-68
2024/02/24 03:43:40;;;;;;;5.22;2.75;;;;;;;9.76;58.05;99605.69;5025019;27;96742;-69
2024/02/24 03:46:07;;;;;;;10.25;3.15;;;;;;;9.33;59.51;99603.41;5020780;27;99075;-68
2024/02/24 03:48:34;;;;;;;9.13;2.90;;;;;;;9.44;59.54;99603.78;5025640;27;99144;-67
2024/02/24 03:51:01;;;;;;;6.00;3.15;;;;;;;9.47;59.27;99608.88;5021076;27;96784;-67
2024/02/24 03:53:28;;;;;;;8.48;3.35;;;;;;;9.59;58.68;99603.84;5029520;27;97298;-68
2024/02/24 03:55:55;;;;;;;7.50;2.42;;;;;;;9.46;59.29;99605.38;5021034;27;100802;-67
2024/02/24 03:58:21;;;;;;;7.10;3.22;;;;;;;9.42;59.75;99603.00;5023985;27;99351;-68
2024/02/24 04:00:50;;;;;;;6.30;3.03;;;;;;;9.60;58.61;99612.63;5027217;27;97259;-68
2024/02/24 04:03:16;;;;;;;5.25;3.03;;;;;;;9.56;58.82;99611.94;5024082;27;96857;-67
2024/02/24 04:05:45;;;;;;;10.13;3.00;;;;;;;9.29;59.25;99608.00;5025365;27;98417;-68
2024/02/24 04:08:11;;;;;;;7.38;3.30;;;;;;;9.27;60.01;99615.13;5023209;27;98911;-67
2024/02/24 04:10:37;;;;;;;6.78;2.97;;;;;;;9.34;59.97;99613.03;5025787;27;97192;-68
2024/02/24 04:13:04;;;;;;;6.90;3.65;;;;;;;9.29;59.70;99620.31;5024550;27;97682;-68
2024/02/24 04:15:30;;;;;;;7.07;3.00;;;;;;;9.19;60.58;99625.16;5022151;27;99529;-68
2024/02/24 04:17:57;;;;;;;8.25;3.55;;;;;;;9.27;60.58;99619.53;5023432;27;99838;-68
2024/02/24 04:20:23;;;;;;;7.50;3.13;;;;;;;9.29;60.30;99617.69;5015522;27;99255;-68
2024/02/24 04:22:51;;;;;;;5.43;2.80;;;;;;;9.26;60.40;99610.78;5022013;27;96956;-68
2024/02/24 04:25:17;;;;;;;5.80;3.33;;;;;;;9.23;60.52;99618.84;5022860;27;99403;-67
2024/02/24 04:27:43;;;;;;;8.50;3.22;;;;;;;9.16;60.73;99609.53;5023864;27;99045;-68
2024/02/24 04:30:10;;;;;;;8.55;3.50;;;;;;;9.12;60.82;99614.06;5024146;27;97436;-68
2024/02/24 04:32:36;;;;;;;7.93;3.45;;;;;;;9.09;61.10;99611.59;5024532;27;96765;-68
2024/02/24 04:35:03;;;;;;;8.25;3.33;;;;;;;9.13;60.81;99622.81;5024279;27;99347;-68
2024/02/24 04:37:30;;;;;;;8.15;3.65;;;;;;;9.05;61.02;99617.94;5026154;27;97556;-68
2024/02/24 04:39:57;;;;;;;10.27;3.80;;;;;;;9.22;61.04;99617.13;5026227;27;97112;-68
2024/02/24 04:42:24;;;;;;;6.30;3.08;;;;;;;9.29;60.54;99612.41;5028332;27;96812;-70
2024/02/24 04:44:50;;;;;;;7.40;3.20;;;;;;;9.20;61.26;99617.19;5026840;27;98923;-69
2024/02/24 04:47:18;;;;;;;7.95;3.28;;;;;;;8.97;61.91;99633.25;5026307;27;97415;-69
2024/02/24 04:49:44;;;;;;;5.97;3.45;;;;;;;8.99;62.34;99635.81;5030083;27;96783;-69
2024/02/24 04:52:10;;;;;;;5.72;3.15;;;;;;;8.92;62.81;99629.13;5024944;27;96815;-69
2024/02/24 04:54:37;;;;;;;10.20;3.30;;;;;;;8.82;62.61;99628.69;5024520;27;99327;-69
2024/02/24 04:57:05;;;;;;;8.80;3.50;;;;;;;8.92;62.55;99639.66;5031480;27;99124;-69
2024/02/24 04:59:31;;;;;;;9.40;3.25;;;;;;;8.90;62.49;99641.50;5019956;27;96948;-68
2024/02/24 05:01:57;;;;;;;8.85;3.40;;;;;;;9.08;62.12;99645.91;5030840;27;97162;-68
2024/02/24 05:04:24;;;;;;;8.57;3.83;;;;;;;9.11;61.85;99638.72;5023684;27;99094;-68
2024/02/24 05:06:51;;;;;;;7.18;3.40;;;;;;;9.06;61.78;99639.84;5028946;27;100725;-69
2024/02/24 05:09:17;;;;;;;6.97;3.47;;;;;;;9.22;61.61;99642.63;5027930;27;97147;-68
2024/02/24 05:11:43;;;;;;;6.40;3.63;;;;;;;9.18;61.70;99648.06;5030912;27;100150;-68
2024/02/24 05:14:11;;;;;;;9.18;4.13;;;;;;;9.03;62.07;99656.69;5023509;27;97327;-66
2024/02/24 05:16:40;;;;;;;9.20;3.40;;;;;;;8.99;62.19;99654.25;5024599;27;99190;-67
2024/02/24 05:19:07;;;;;;;8.02;3.55;;;;;;;9.01;62.03;99661.16;5026392;27;97255;-67
2024/02/24 05:21:33;;;;;;;8.65;3.50;;;;;;;9.25;61.93;99664.44;5020344;27;97757;-67
2024/02/24 05:24:00;;;;;;;9.32;3.50;;;;;;;9.41;61.42;99675.09;5029210;27;98643;-68
2024/02/24 05:26:28;;;;;;;7.05;3.90;;;;;;;9.51;60.46;99671.97;5027378;27;100370;-69
2024/02/24 05:28:55;;;;;;;7.63;3.75;;;;;;;9.58;60.65;99672.53;5025197;27;96641;-68
2024/02/24 05:31:23;;;;;;;9.85;4.13;;;;;;;9.40;60.56;99668.97;5030179;27;97096;-68
2024/02/24 05:33:52;;;;;;;8.23;3.72;;;;;;;9.24;61.09;99670.63;5027707;27;99378;-68
2024/02/24 05:36:18;;;;;;;7.82;3.60;;;;;;;9.10;62.10;99667.78;5026919;27;98925;-68
2024/02/24 05:38:45;;;;;;;7.35;3.17;;;;;;;8.66;63.20;99667.19;5028662;27;100027;-68
2024/02/24 05:41:12;;;;;;;8.82;3.20;;;;;;;8.64;64.30;99671.66;5027666;27;97481;-68
2024/02/24 05:43:38;;;;;;;7.55;3.72;;;;;;;8.85;63.63;99665.44;5030064;27;97527;-68
2024/02/24 05:46:06;;;;;;;7.63;3.25;;;;;;;8.61;64.25;99666.50;5025730;27;98902;-69
2024/02/24 05:48:34;;;;;;;8.73;3.40;;;;;;;8.79;63.53;99663.09;5026608;27;97754;-68
2024/02/24 05:51:00;;;;;;;9.77;3.20;;;;;;;8.83;63.60;99654.09;5025362;27;96925;-68
2024/02/24 05:53:26;;;;;;;8.45;3.45;;;;;;;8.96;62.65;99662.28;5029870;27;98515;-68
2024/02/24 05:55:53;;;;;;;8.05;3.67;;;;;;;9.20;61.98;99666.41;5019436;27;99094;-68
2024/02/24 05:58:21;;;;;;;7.85;3.80;;;;;;;8.88;62.89;99652.09;5025017;27;96777;-69
2024/02/24 06:00:48;;;;;;;11.02;3.30;;;;;;;9.11;62.36;99662.47;5029200;27;96764;-68
2024/02/24 06:03:14;;;;;;;6.38;3.45;;;;;;;9.06;62.17;99664.44;5027441;27;100832;-70
2024/02/24 06:05:41;;;;;;;7.65;3.90;;;;;;;8.90;62.67;99673.97;5027876;27;98808;-68
2024/02/24 06:08:08;;;;;;;7.53;3.83;;;;;;;9.01;62.63;99671.69;5023145;27;96937;-68
2024/02/24 06:10:35;;;;;;;4.97;3.22;;;;;;;8.88;62.79;99672.31;5026213;27;97467;-68
2024/02/24 06:13:04;;;;;;;7.78;3.90;;;;;;;8.87;62.94;99668.84;5026741;27;98100;-68
2024/02/24 06:15:30;;;;;;;6.80;3.22;;;;;;;8.78;63.19;99679.81;5022839;27;98927;-68
2024/02/24 06:17:57;;;;;;;9.23;3.78;;;;;;;8.47;64.08;99687.34;5025624;27;97993;-67
2024/02/24 06:20:24;;;;;;;6.68;3.75;;;;;;;8.67;63.55;99684.66;5026470;27;97125;-67
2024/02/24 06:22:52;;;;;;;8.75;3.95;;;;;;;8.68;63.60;99686.38;5023390;27;99080;-67
2024/02/24 06:25:18;;;;;;;7.60;3.72;;;;;;;8.80;63.36;99691.09;5027224;27;101580;-68
2024/02/24 06:27:44;;;;;;;9.32;3.97;;;;;;;8.48;63.78;99697.78;5026258;27;97693;-69
2024/02/24 06:30:12;;;;;;;7.35;3.78;;;;;;;8.57;64.14;99688.66;5022420;27;97069;-69
2024/02/24 06:32:38;;;;;;;6.93;3.72;;;;;;;8.54;64.43;99692.25;5027070;27;98834;-69
2024/02/24 06:35:05;;;;;;;7.53;3.50;;;;;;;8.77;63.59;99696.53;5020032;27;98750;-69
2024/02/24 06:37:31;;;;;;;10.50;3.83;;;;;;;8.58;64.36;99703.53;5027514;27;98286;-69
2024/02/24 06:39:59;;;;;;;8.23;3.38;;;;;;;8.78;63.71;99706.16;5026591;27;97290;-69
2024/02/24 06:42:25;;;;;;;7.18;3.53;;;;;;;8.89;63.64;99708.28;5022237;27;99173;-69
2024/02/24 06:44:52;;;;;;;6.75;3.38;;;;;;;8.98;63.24;99708.75;5024926;27;98779;-68
2024/02/24 06:47:18;;;;;;;10.55;3.63;;;;;;;9.37;61.92;99707.81;5029998;27;96906;-68
2024/02/24 06:49:45;;;;;;;5.47;2.78;;;;;;;9.25;61.86;99711.03;5029167;27;97208;-68
2024/02/24 06:52:11;;;;;;;10.77;3.85;;;;;;;9.13;62.37;99705.38;5025511;27;99183;-68
2024/02/24 06:54:40;;;;;;;9.50;3.65;;;;;;;9.39;61.98;99705.94;5025387;27;98885;-68
2024/02/24 06:57:07;;;;;;;7.03;3.50;;;;;;;9.25;62.02;99711.03;5027425;27;97899;-68
2024/02/24 06:59:34;;;;;;;5.43;3.40;;;;;;;9.41;61.50;99704.09;5021038;27;96804;-68
2024/02/24 07:02:00;;;;;;;6.50;3.53;;;;;;;9.47;61.79;99709.09;5024456;27;99122;-68
2024/02/24 07:04:28;;;;;;;7.85;3.75;;;;;;;9.27;62.14;99706.53;5026553;27;98823;-68
2024/02/24 07:06:55;;;;;;;6.93;3.10;;;;;;;9.52;61.44;99715.00;5028169;27;96834;-68
2024/02/24 07:09:21;;;;;;;4.90;3.30;;;;;;;9.64;61.36;99725.00;5027667;27;97923;-68
2024/02/24 07:11:48;;;;;;;7.65;2.95;;;;;;;9.46;61.87;99724.06;5028299;27;98977;-68
2024/02/24 07:14:16;;;;;;;12.55;3.28;;;;;;;9.77;61.15;99727.88;5024068;27;101269;-68
2024/02/24 07:16:42;;;;;;;5.28;3.40;;;;;;;9.57;61.37;99734.13;5025159;27;98194;-68
2024/02/24 07:19:09;;;;;;;7.32;2.85;;;;;;;9.76;60.53;99727.03;5028660;27;97008;-69
2024/02/24 07:21:40;;;;;;;7.03;3.15;;;;;;;9.93;60.26;99740.25;5024923;27;99174;-69
2024/02/24 07:24:07;;;;;;;5.68;3.33;;;;;;;9.94;60.46;99739.31;5026242;27;99300;-70
2024/02/24 07:26:41;;;;;;;11.68;3.35;;;;;;;10.21;59.47;99741.56;5024341;27;96839;-69
2024/02/24 07:29:07;;;;;;;5.47;2.75;;;;;;;10.08;59.53;99740.44;5027149;27;97495;-69
2024/02/24 07:31:35;;;;;;;7.70;3.30;;;;;;;10.28;59.28;99748.25;5021478;27;101445;-69
2024/02/24 07:34:01;;;;;;;9.88;4.47;;;;;;;10.23;59.04;99745.00;5029768;27;99556;-69
2024/02/24 07:36:29;;;;;;;9.60;3.20;;;;;;;10.23;59.25;99751.13;5024527;27;97038;-70
2024/02/24 07:38:56;;;;;;;4.80;2.97;;;;;;;10.39;58.98;99759.13;5026027;27;96979;-69
2024/02/24 07:41:22;;;;;;;6.82;3.38;;;;;;;10.61;57.90;99757.13;5027023;27;99190;-68
2024/02/24 07:43:48;;;;;;;5.50;3.10;;;;;;;10.43;58.48;99759.84;5022193;27;98957;-70
2024/02/24 07:46:19;;;;;;;6.20;3.10;;;;;;;10.33;58.67;99756.78;5027191;27;96850;-69
2024/02/24 07:48:47;;;;;;;9.02;3.10;;;;;;;10.40;58.52;99763.47;5022401;27;97809;-70
2024/02/24 07:51:13;;;;;;;13.15;3.10;;;;;;;10.61;58.24;99762.41;5017315;27;99593;-67
2024/02/24 07:53:40;;;;;;;8.90;3.05;;;;;;;10.45;58.06;99761.47;5023098;27;98071;-69
2024/02/24 07:56:06;;;;;;;5.93;3.08;;;;;;;10.72;57.72;99773.25;5031610;27;96850;-68
2024/02/24 07:58:33;;;;;;;5.55;2.45;;;;;;;10.77;56.88;99773.03;5026288;27;96835;-67
2024/02/24 08:01:00;;;;;;;5.35;3.08;;;;;;;10.70;57.30;99775.13;5018221;27;100958;-67
2024/02/24 08:03:26;;;;;;;7.43;2.67;;;;;;;10.71;57.56;99776.84;5009196;27;98934;-69
2024/02/24 08:05:53;;;;;;;10.23;3.53;;;;;;;10.66;56.87;99776.22;5015475;27;97888;-69
2024/02/24 08:08:20;;;;;;;6.50;2.83;;;;;;;11.03;56.42;99783.09;5027479;27;100122;-69
2024/02/24 08:10:46;;;;;;;6.22;3.08;;;;;;;10.91;56.39;99785.53;5022870;27;98822;-68
2024/02/24 08:13:13;;;;;;;8.60;3.10;;;;;;;11.05;56.23;99775.94;5024261;27;102819;-68
2024/02/24 08:15:39;;;;;;;8.02;3.10;;;;;;;11.48;55.68;99774.53;5024937;27;96736;-67
2024/02/24 08:18:06;;;;;;;11.43;3.50;;;;;;;11.72;54.54;99774.09;5025491;27;97221;-69
2024/02/24 08:20:32;;;;;;;6.88;2.55;;;;;;;11.72;53.96;99772.31;5022123;27;97680;-69
2024/02/24 08:23:00;;;;;;;7.25;2.55;;;;;;;11.78;53.68;99769.34;5024031;27;97759;-71
2024/02/24 08:25:27;;;;;;;6.05;2.28;;;;;;;12.01;53.21;99770.72;5025106;27;98425;-69
2024/02/24 08:27:53;;;;;;;4.90;2.55;;;;;;;12.10;52.49;99772.81;5030982;27;97281;-68
2024/02/24 08:30:20;;;;;;;8.23;2.92;;;;;;;12.07;52.42;99780.09;5027307;27;99463;-68
2024/02/24 08:32:46;;;;;;;11.18;2.60;;;;;;;12.08;52.90;99781.81;5030426;27;98747;-67
2024/02/24 08:35:12;;;;;;;4.95;2.53;;;;;;;12.13;52.38;99785.91;5029071;27;97046;-68
2024/02/24 08:37:39;;;;;;;9.63;2.75;;;;;;;12.34;52.14;99795.25;5017204;27;101648;-68
2024/02/24 08:40:09;;;;;;;5.22;2.55;;;;;;;12.24;51.90;99783.47;5022681;27;97483;-69
2024/02/24 08:42:35;;;;;;;7.15;2.72;;;;;;;12.26;52.66;99784.25;5022266;27;101017;-69
2024/02/24 08:45:01;;;;;;;8.50;2.95;;;;;;;12.37;51.91;99787.13;5022854;27;97120;-68
2024/02/24 08:47:27;;;;;;;6.63;3.10;;;;;;;12.59;50.95;99785.88;5024129;27;98755;-69
2024/02/24 08:49:54;;;;;;;4.82;2.40;;;;;;;12.61;50.59;99791.94;5026867;27;98763;-69
2024/02/24 08:52:20;;;;;;;4.15;2.60;;;;;;;12.58;50.55;99790.34;5019301;27;99032;-68
2024/02/24 08:54:46;;;;;;;7.80;2.38;;;;;;;12.57;50.58;99799.22;5023651;27;98845;-69
2024/02/24 08:57:14;;;;;;;5.53;2.40;;;;;;;12.58;50.58;99800.06;5020986;27;97706;-70
2024/02/24 08:59:40;;;;;;;7.60;2.35;;;;;;;12.78;50.01;99797.97;5027042;27;98373;-70
2024/02/24 09:02:07;;;;;;;4.65;2.15;;;;;;;12.92;49.77;99797.16;5024152;27;99058;-69
2024/02/24 09:04:33;;;;;;;4.50;1.85;;;;;;;13.32;48.79;99805.38;5022165;27;97913;-68
2024/02/24 09:06:59;;;;;;;4.45;2.00;;;;;;;13.29;48.43;99801.09;5019038;27;97734;-68
2024/02/24 09:09:26;;;;;;;7.03;2.60;;;;;;;13.49;48.19;99813.13;5022018;27;99244;-69
2024/02/24 09:11:52;;;;;;;6.40;1.95;;;;;;;13.08;49.24;99807.66;5016848;27;98981;-69
2024/02/24 09:14:20;;;;;;;4.90;1.90;;;;;;;13.48;48.04;99824.69;5018100;27;96879;-69
2024/02/24 09:16:46;;;;;;;7.38;2.03;;;;;;;13.52;47.90;99823.56;5027021;27;97874;-69
2024/02/24 09:19:13;;;;;;;7.93;2.42;;;;;;;13.57;47.15;99829.44;5020622;27;99085;-70
2024/02/24 09:21:39;;;;;;;4.97;1.63;;;;;;;13.70;47.27;99817.09;5028141;27;98132;-70
2024/02/24 09:24:05;;;;;;;2.17;1.48;;;;;;;13.61;46.34;99822.13;5029684;27;96793;-70
2024/02/24 09:26:32;;;;;;;2.90;1.42;;;;;;;13.38;47.08;99832.38;5023321;27;98730;-68
2024/02/24 09:29:01;;;;;;;5.22;2.05;;;;;;;13.44;47.02;99839.09;5031548;27;97788;-78
2024/02/24 09:31:28;;;;;;;7.60;1.92;;;;;;;13.40;47.11;99843.72;5025830;27;102120;-76
2024/02/24 09:33:55;;;;;;;4.13;1.95;;;;;;;13.49;47.09;99844.97;5025466;27;98765;-76
2024/02/24 09:36:22;;;;;;;4.85;1.63;;;;;;;13.70;46.78;99848.09;5020354;27;97132;-76
2024/02/24 09:38:48;;;;;;;6.40;2.17;;;;;;;13.82;46.45;99831.41;5020829;27;101009;-77
2024/02/24 09:41:17;;;;;;;3.70;1.75;;;;;;;13.89;47.04;99833.56;5025889;27;98802;-75
2024/02/24 09:43:44;;;;;;;3.83;1.75;;;;;;;13.97;46.14;99838.41;5026541;27;97205;-76
2024/02/24 09:46:11;;;;;;;6.10;2.03;;;;;;;14.19;45.38;99830.75;5024784;27;96927;-75
2024/02/24 09:48:41;;;;;;;6.70;2.22;;;;;;;14.19;45.25;99836.06;5028036;27;99050;-76
2024/02/24 09:51:08;;;;;;;7.07;2.03;;;;;;;14.17;45.11;99845.09;5027452;27;99248;-76
2024/02/24 09:53:34;;;;;;;6.88;2.00;;;;;;;14.15;45.59;99845.19;5030027;27;96641;-76
2024/02/24 09:56:01;;;;;;;5.70;1.92;;;;;;;14.16;45.37;99856.66;5022818;27;101817;-76
2024/02/24 09:58:31;;;;;;;8.32;1.75;;;;;;;14.34;45.38;99860.78;5023608;27;98027;-75
2024/02/24 10:00:57;;;;;;;7.38;2.00;;;;;;;14.27;44.90;99849.72;5021594;27;99110;-75
2024/02/24 10:03:25;;;;;;;6.03;1.83;;;;;;;14.34;45.21;99851.00;5022435;27;97412;-75
2024/02/24 10:05:52;;;;;;;3.83;1.60;;;;;;;14.22;45.33;99859.78;5019358;27;96903;-76
2024/02/24 10:08:19;;;;;;;8.73;2.00;;;;;;;14.25;44.77;99854.25;5029134;27;99250;-76
2024/02/24 10:10:46;;;;;;;8.38;2.28;;;;;;;14.14;44.80;99848.78;5027276;27;98754;-76
2024/02/24 10:13:17;;;;;;;9.13;2.22;;;;;;;14.13;44.93;99855.06;5027578;27;97003;-76
2024/02/24 10:15:44;;;;;;;5.43;1.52;;;;;;;14.62;44.57;99863.41;5022957;27;98730;-75
2024/02/24 10:18:10;;;;;;;4.45;1.67;;;;;;;14.45;44.25;99858.31;5023031;27;98976;-76
2024/02/24 10:20:37;;;;;;;6.80;1.70;;;;;;;14.52;43.73;99864.06;5028038;27;98750;-76
2024/02/24 10:23:04;;;;;;;5.90;1.38;;;;;;;13.24;46.04;99860.69;5027427;27;98447;-76
2024/02/24 10:25:31;;;;;;;5.13;1.42;;;;;;;13.35;46.25;99868.84;5027655;27;97898;-77
2024/02/24 10:27:58;;;;;;;3.70;1.13;;;;;;;13.50;46.12;99868.78;5027317;27;98888;-77
2024/02/24 10:30:25;;;;;;;5.22;1.70;;;;;;;13.64;46.29;99873.22;5022342;27;98933;-78
2024/02/24 10:32:52;;;;;;;2.42;1.20;;;;;;;13.89;45.85;99872.56;5020207;27;96772;-75
2024/02/24 10:35:20;;;;;;;3.53;1.20;;;;;;;13.65;45.15;99868.78;5024760;27;98171;-77
2024/02/24 10:37:49;;;;;;;7.43;1.50;;;;;;;13.43;46.50;99866.59;5025499;27;99163;-77
2024/02/24 10:40:18;;;;;;;3.25;1.30;;;;;;;13.73;45.58;99869.13;5024462;27;100600;-76
2024/02/24 10:42:46;;;;;;;4.68;1.52;;;;;;;14.03;45.03;99869.03;5022861;27;97357;-75
2024/02/24 10:45:13;;;;;;;3.65;1.30;;;;;;;14.44;44.03;99869.88;5027387;27;96897;-76
2024/02/24 10:47:39;;;;;;;5.05;1.55;;;;;;;14.88;43.28;99885.59;5024730;27;98995;-76
2024/02/24 10:50:11;;;;;;;6.22;1.27;;;;;;;14.65;42.38;99895.09;5019317;27;99082;-75
2024/02/24 10:52:38;;;;;;;2.95;1.15;;;;;;;13.77;43.05;99902.53;5025483;27;97236;-75
2024/02/24 10:55:06;;;;;;;3.33;1.05;;;;;;;13.72;43.65;99902.78;5018868;27;98561;-76
2024/02/24 10:57:37;;;;;;;4.00;1.45;;;;;;;13.38;44.58;99905.81;5026166;27;99283;-76
2024/02/24 11:00:25;;;;;;;2.38;1.50;;;;;;;13.10;45.98;99912.72;5028331;27;98833;-77
2024/02/24 11:02:51;;;;;;;3.38;1.48;;;;;;;12.27;48.40;99905.13;5022288;27;96779;-75
2024/02/24 11:05:18;;;;;;;2.00;1.40;;;;;;;12.76;47.75;99902.38;5018705;27;97433;-76
2024/02/24 11:07:45;;;;;;;4.57;1.38;;;;;;;12.52;48.40;99914.38;5021631;27;100572;-76
2024/02/24 11:10:16;;;;;;;6.88;1.13;;;;;;;12.75;48.03;99913.91;5023691;27;99179;-76
2024/02/24 11:12:44;;;;;;;6.22;1.67;;;;;;;13.16;47.37;99909.75;5028921;27;97195;-77
2024/02/24 11:15:17;;;;;;;2.72;1.30;;;;;;;12.96;47.65;99906.53;5025957;27;96926;-77
2024/02/24 11:17:51;;;;;;;6.80;1.52;;;;;;;13.70;46.44;99902.06;5026796;27;99881;-76
2024/02/24 11:20:57;;;;;;;5.75;1.30;;;;;;;13.79;45.61;99906.78;5023922;27;100023;-77
2024/02/24 11:23:25;;;;;;;5.57;1.95;;;;;;;14.28;45.38;99904.56;5027100;27;97203;-75
2024/02/24 11:26:21;;;;;;;2.83;1.23;;;;;;;14.70;44.29;99916.91;5029986;27;96929;-76
2024/02/24 11:29:01;;;;;;;5.10;1.73;;;;;;;14.21;44.83;99913.03;5026252;27;97587;-76
2024/02/24 11:31:29;;;;;;;4.78;1.38;;;;;;;14.18;45.12;99914.06;5025845;27;98909;-78
2024/02/24 11:33:59;;;;;;;4.97;1.40;;;;;;;13.93;45.92;99906.78;5022205;27;98601;-76
2024/02/24 11:36:25;;;;;;;1.80;1.15;;;;;;;13.87;46.08;99915.13;5026581;27;97228;-75